Main page
METAR-TAF:

METAR-TAF

Airports :

Houari Boumediene Airport

Algiers, Algeria

latitude: 36-43N, longitude: 003-15E, elevation: 25 m

Current weather observation

The report was made 36 minutes ago, at 17:30 UTC
Wind 4 kt from the North/Northeast, varying between North and East/Northeast
Temperature 13°C
Humidity 82%
Pressure 1025 hPa
Visibility 10 km or more
Few clouds at a height of 2600 ft

METAR: DAAG 271730Z 03004KT 350V070 9999 FEW026 13/10 Q1025

Time: 19:06 (18:06 UTC)

Forecast

The report was made 1 hour and 6 minutes ago, at 17:00 UTC
Forecast valid from 27 at 18 UTC to 28 at 18 UTC
Wind 2 kt from variable directions
Visibility 10 km or more
Few clouds at a height of 2600 ft

TAF: DAAG 271700Z 2718/2818 VRB02KT 9999 FEW026

Weather observations and forecasts of more than 4000 airports (METAR and TAF reports).

The available stations are represented by yellow and red dots on the map.

Hover mouse over dot to see the name of the station.

Then click to see weather observations and forecasts.

To change the map : click on the green buttons with a black cross to zoom in, on the green button with a dash to zoom out, or on the green arrows for adjacent maps.


METAR-TAF: